createdAt,value
2023-02-18T00:01:15.551Z,11.59
2023-02-18T00:03:42.351Z,11.55
2023-02-18T00:06:15.865Z,11.59
2023-02-18T00:08:44.181Z,11.58
2023-02-18T00:11:11.102Z,11.60
2023-02-18T00:13:37.743Z,11.60
2023-02-18T00:16:10.761Z,11.65
2023-02-18T00:18:38.465Z,11.59
2023-02-18T00:21:07.169Z,11.60
2023-02-18T00:23:34.447Z,11.66
2023-02-18T00:26:02.567Z,11.66
2023-02-18T00:28:29.133Z,11.67
2023-02-18T00:30:55.702Z,11.67
2023-02-18T00:33:22.734Z,11.63
2023-02-18T00:35:49.630Z,11.66
2023-02-18T00:38:16.793Z,11.67
2023-02-18T00:40:43.520Z,11.70
2023-02-18T00:43:10.954Z,11.65
2023-02-18T00:45:37.437Z,11.69
2023-02-18T00:48:03.995Z,11.65
2023-02-18T00:50:30.474Z,11.72
2023-02-18T00:52:56.946Z,11.70
2023-02-18T00:55:23.408Z,11.63
2023-02-18T00:57:49.862Z,11.62
2023-02-18T01:00:16.806Z,11.64
2023-02-18T01:02:43.879Z,11.72
2023-02-18T01:05:10.412Z,11.64
2023-02-18T01:07:36.860Z,11.65
2023-02-18T01:10:04.655Z,11.73
2023-02-18T01:12:31.144Z,11.66
2023-02-18T01:14:57.611Z,11.61
2023-02-18T01:17:24.104Z,11.65
2023-02-18T01:19:50.607Z,11.70
2023-02-18T01:22:17.218Z,11.67
2023-02-18T01:24:45.417Z,11.61
2023-02-18T01:27:12.873Z,11.71
2023-02-18T01:29:39.386Z,11.60
2023-02-18T01:32:06.032Z,11.64
2023-02-18T01:34:32.670Z,11.63
2023-02-18T01:37:01.208Z,11.62
2023-02-18T01:39:27.698Z,11.65
2023-02-18T01:41:54.158Z,11.70
2023-02-18T01:44:23.616Z,11.63
2023-02-18T01:46:50.359Z,11.72
2023-02-18T01:49:22.714Z,11.63
2023-02-18T01:51:54.149Z,11.72
2023-02-18T01:54:32.773Z,11.74
2023-02-18T01:57:05.207Z,11.73
2023-02-18T01:59:37.159Z,11.73
2023-02-18T02:02:06.035Z,11.66
2023-02-18T02:04:32.663Z,11.72
2023-02-18T02:06:59.293Z,11.68
2023-02-18T02:09:28.834Z,11.65
2023-02-18T02:12:10.671Z,11.59
2023-02-18T02:14:43.145Z,11.61
2023-02-18T02:17:26.983Z,11.58
2023-02-18T02:20:29.290Z,11.54
2023-02-18T02:23:23.208Z,11.50
2023-02-18T02:26:11.490Z,11.59
2023-02-18T02:29:01.395Z,11.51
2023-02-18T02:32:09.213Z,11.56
2023-02-18T02:35:06.646Z,11.51
2023-02-18T02:37:48.709Z,11.56
2023-02-18T02:40:36.750Z,11.55
2023-02-18T02:43:35.414Z,11.53
2023-02-18T02:46:19.762Z,11.48
2023-02-18T02:48:58.733Z,11.48
2023-02-18T02:51:46.913Z,11.50
2023-02-18T02:54:25.305Z,11.48
2023-02-18T02:57:25.023Z,11.42
2023-02-18T03:00:00.272Z,11.41
2023-02-18T03:02:26.658Z,11.39
2023-02-18T03:05:20.407Z,11.40
2023-02-18T03:08:12.965Z,11.36
2023-02-18T03:10:56.945Z,11.43
2023-02-18T03:13:44.937Z,11.40
2023-02-18T03:16:24.115Z,11.31
2023-02-18T03:19:06.610Z,11.34
2023-02-18T03:21:39.858Z,11.39
2023-02-18T03:24:18.718Z,11.33
2023-02-18T03:26:52.428Z,11.40
2023-02-18T03:29:21.230Z,11.39
2023-02-18T03:31:52.876Z,11.33
2023-02-18T03:34:33.952Z,11.40
2023-02-18T03:37:01.584Z,11.39
2023-02-18T03:39:32.171Z,11.41
2023-02-18T03:41:58.642Z,11.29
2023-02-18T03:44:26.043Z,11.41
2023-02-18T03:46:53.187Z,11.42
2023-02-18T03:49:19.718Z,11.41
2023-02-18T03:51:47.199Z,11.44
2023-02-18T03:54:14.610Z,11.40
2023-02-18T03:56:41.332Z,11.32
2023-02-18T03:59:07.827Z,11.41
2023-02-18T04:01:35.692Z,11.39
2023-02-18T04:04:03.189Z,11.38
2023-02-18T04:06:29.769Z,11.53
2023-02-18T04:08:56.236Z,11.46
2023-02-18T04:11:22.785Z,11.42
2023-02-18T04:13:49.322Z,11.46
2023-02-18T04:16:16.055Z,11.46
2023-02-18T04:18:42.602Z,11.46
2023-02-18T04:21:09.284Z,11.53
2023-02-18T04:23:35.744Z,11.50
2023-02-18T04:26:02.222Z,11.51
2023-02-18T04:28:28.673Z,11.43
2023-02-18T04:30:55.175Z,11.53
2023-02-18T04:33:21.682Z,11.58
2023-02-18T04:35:48.134Z,11.55
2023-02-18T04:38:14.618Z,11.61
2023-02-18T04:40:41.162Z,11.51
2023-02-18T04:43:07.654Z,11.54
2023-02-18T04:45:34.233Z,11.56
2023-02-18T04:48:00.670Z,11.55
2023-02-18T04:50:27.241Z,11.50
2023-02-18T04:52:53.759Z,11.50
2023-02-18T04:55:20.193Z,11.59
2023-02-18T04:57:46.732Z,11.47
2023-02-18T05:00:18.528Z,11.44
2023-02-18T05:02:46.098Z,11.50
2023-02-18T05:05:14.270Z,11.44
2023-02-18T05:07:42.316Z,11.44
2023-02-18T05:10:11.747Z,11.39
2023-02-18T05:12:38.297Z,11.34
2023-02-18T05:15:05.198Z,11.38
2023-02-18T05:17:31.807Z,11.36
2023-02-18T05:19:58.565Z,11.33
2023-02-18T05:22:25.093Z,11.29
2023-02-18T05:24:51.576Z,11.35
2023-02-18T05:27:18.119Z,11.30
2023-02-18T05:29:44.628Z,11.31
2023-02-18T05:32:11.289Z,11.37
2023-02-18T05:34:37.761Z,11.26
2023-02-18T05:37:04.305Z,11.32
2023-02-18T05:39:30.773Z,11.34
2023-02-18T05:41:57.290Z,11.27
2023-02-18T05:44:30.390Z,11.24
2023-02-18T05:46:58.776Z,11.17
2023-02-18T05:49:25.831Z,11.25
2023-02-18T05:51:52.348Z,11.27
2023-02-18T05:54:18.814Z,11.29
2023-02-18T05:56:45.299Z,11.21
2023-02-18T05:59:11.966Z,11.22
2023-02-18T06:01:38.613Z,11.13
2023-02-18T06:04:05.218Z,11.23
2023-02-18T06:06:32.152Z,11.23
2023-02-18T06:08:58.711Z,11.22
2023-02-18T06:11:25.189Z,11.17
2023-02-18T06:13:51.683Z,11.16
2023-02-18T06:16:18.223Z,11.21
2023-02-18T06:18:44.799Z,11.22
2023-02-18T06:21:11.352Z,11.21
2023-02-18T06:23:37.953Z,11.15
2023-02-18T06:26:04.671Z,11.22
2023-02-18T06:28:31.176Z,11.04
2023-02-18T06:30:57.748Z,11.11
2023-02-18T06:33:24.348Z,11.16
2023-02-18T06:36:00.126Z,11.09
2023-02-18T06:38:27.693Z,11.11
2023-02-18T06:40:54.512Z,11.22
2023-02-18T06:43:21.281Z,11.13
2023-02-18T06:45:47.823Z,11.11
2023-02-18T06:48:14.449Z,11.16
2023-02-18T06:50:43.074Z,11.11
2023-02-18T06:53:10.105Z,11.15
2023-02-18T06:55:36.662Z,11.11
2023-02-18T06:58:03.290Z,11.11
2023-02-18T07:00:29.810Z,11.05
2023-02-18T07:02:56.273Z,11.04
2023-02-18T07:05:22.767Z,11.02
2023-02-18T07:07:49.343Z,11.12
2023-02-18T07:10:16.008Z,10.96
2023-02-18T07:12:42.545Z,11.08
2023-02-18T07:15:09.458Z,11.00
2023-02-18T07:17:35.927Z,11.02
2023-02-18T07:20:03.001Z,11.01
2023-02-18T07:22:29.445Z,11.04
2023-02-18T07:24:56.178Z,10.97
2023-02-18T07:27:23.183Z,10.94
2023-02-18T07:29:49.714Z,10.92
2023-02-18T07:32:18.087Z,10.98
2023-02-18T07:34:44.645Z,10.88
2023-02-18T07:37:12.395Z,10.95
2023-02-18T07:39:43.151Z,10.90
2023-02-18T07:42:11.423Z,10.87
2023-02-18T07:44:38.935Z,10.98
2023-02-18T07:47:06.270Z,10.86
2023-02-18T07:49:33.214Z,10.91
2023-02-18T07:51:59.847Z,10.91
2023-02-18T07:54:26.879Z,10.86
2023-02-18T07:56:54.855Z,10.86
2023-02-18T07:59:21.652Z,10.90
2023-02-18T08:01:48.223Z,10.87
2023-02-18T08:04:15.413Z,10.79
2023-02-18T08:06:47.408Z,10.80
2023-02-18T08:09:14.245Z,10.85
2023-02-18T08:11:40.753Z,10.82
2023-02-18T08:14:07.646Z,10.80
2023-02-18T08:16:34.808Z,10.85
2023-02-18T08:19:03.633Z,10.82
2023-02-18T08:21:30.896Z,10.86
2023-02-18T08:23:58.573Z,10.85
2023-02-18T08:26:25.977Z,10.84
2023-02-18T08:28:52.832Z,10.92
2023-02-18T08:31:30.057Z,10.87
2023-02-18T08:33:58.715Z,10.84
2023-02-18T08:36:25.255Z,10.88
2023-02-18T08:38:51.835Z,10.80
2023-02-18T08:41:21.419Z,10.69
2023-02-18T08:43:48.206Z,10.68
2023-02-18T08:46:15.858Z,10.60
2023-02-18T08:48:43.909Z,10.69
2023-02-18T08:51:13.273Z,10.70
2023-02-18T08:53:40.036Z,10.60
2023-02-18T08:56:08.511Z,10.62
2023-02-18T08:58:37.276Z,10.68
2023-02-18T09:01:07.060Z,10.63
2023-02-18T09:03:34.753Z,10.52
2023-02-18T09:06:01.596Z,10.48
2023-02-18T09:08:28.454Z,10.45
2023-02-18T09:10:59.336Z,10.44
2023-02-18T09:13:26.556Z,10.45
2023-02-18T09:16:06.725Z,10.49
2023-02-18T09:18:37.710Z,10.41
2023-02-18T09:21:07.593Z,10.46
2023-02-18T09:23:35.104Z,10.41
2023-02-18T09:26:04.925Z,10.42
2023-02-18T09:28:31.412Z,10.40
2023-02-18T09:30:57.969Z,10.47
2023-02-18T09:33:24.470Z,10.46
2023-02-18T09:35:50.939Z,10.46
2023-02-18T09:38:17.826Z,10.52
2023-02-18T09:40:48.616Z,10.56
2023-02-18T09:43:22.630Z,10.53
2023-02-18T09:45:51.402Z,10.57
2023-02-18T09:48:17.889Z,10.56
2023-02-18T09:50:52.368Z,10.61
2023-02-18T09:53:19.514Z,10.52
2023-02-18T09:55:46.405Z,10.52
2023-02-18T09:58:18.414Z,10.54
2023-02-18T10:00:50.610Z,10.52
2023-02-18T10:03:21.081Z,10.49
2023-02-18T10:05:58.332Z,10.47
2023-02-18T10:08:32.179Z,10.49
2023-02-18T10:10:58.685Z,10.50
2023-02-18T10:13:29.258Z,10.63
2023-02-18T10:15:56.002Z,10.61
2023-02-18T10:21:14.045Z,10.68
2023-02-18T10:23:47.363Z,10.56
2023-02-18T10:26:17.988Z,10.65
2023-02-18T10:28:45.417Z,10.60
2023-02-18T10:31:18.511Z,10.59
2023-02-18T10:33:54.370Z,10.51
2023-02-18T10:36:35.707Z,10.47
2023-02-18T10:39:25.146Z,10.49
2023-02-18T10:42:06.037Z,10.34
2023-02-18T10:44:44.260Z,10.43
2023-02-18T10:47:39.095Z,10.28
2023-02-18T10:50:42.794Z,10.31
2023-02-18T10:53:34.934Z,10.30
2023-02-18T10:56:01.998Z,10.22
2023-02-18T10:58:37.156Z,10.17
2023-02-18T11:01:08.523Z,10.18
2023-02-18T11:03:42.968Z,10.19
2023-02-18T11:06:19.769Z,10.25
2023-02-18T11:08:47.091Z,10.17
2023-02-18T11:11:24.614Z,10.19
2023-02-18T11:13:57.078Z,10.10
2023-02-18T11:16:35.741Z,10.13
2023-02-18T11:19:04.324Z,10.06
2023-02-18T11:21:36.133Z,10.06
2023-02-18T11:24:20.723Z,10.16
2023-02-18T11:26:47.274Z,10.19
2023-02-18T11:29:20.054Z,10.16
2023-02-18T11:31:49.772Z,10.13
2023-02-18T11:34:32.884Z,10.12
2023-02-18T11:37:23.195Z,10.08
2023-02-18T11:39:54.201Z,10.10
2023-02-18T11:42:24.466Z,10.13
2023-02-18T11:44:59.253Z,10.16
2023-02-18T11:47:37.149Z,10.17
2023-02-18T11:50:09.623Z,10.15
2023-02-18T11:52:41.424Z,10.19
2023-02-18T11:55:27.688Z,10.19
2023-02-18T11:58:00.860Z,10.20
2023-02-18T12:00:37.096Z,10.24
2023-02-18T12:03:15.437Z,10.26
2023-02-18T12:05:44.295Z,10.31
2023-02-18T12:08:19.291Z,10.36
2023-02-18T12:11:05.187Z,10.29
2023-02-18T12:14:04.200Z,10.34
2023-02-18T12:16:54.724Z,10.25
2023-02-18T12:19:27.039Z,10.29
2023-02-18T12:22:26.716Z,10.19
2023-02-18T12:25:14.759Z,10.29
2023-02-18T12:28:00.011Z,10.31
2023-02-18T12:30:58.512Z,10.33
2023-02-18T12:33:27.658Z,10.32
2023-02-18T12:36:03.268Z,10.33
2023-02-18T12:38:55.897Z,10.30
2023-02-18T12:41:35.902Z,10.38
2023-02-18T12:44:33.820Z,10.42
2023-02-18T12:47:24.880Z,10.41
2023-02-18T12:50:19.204Z,10.34
2023-02-18T12:53:18.634Z,10.43
2023-02-18T12:56:01.311Z,10.44
2023-02-18T12:58:49.614Z,10.42
2023-02-18T13:01:38.642Z,10.46
2023-02-18T13:04:23.117Z,10.50
2023-02-18T13:07:07.127Z,10.39
2023-02-18T13:09:36.721Z,10.52
2023-02-18T13:12:11.168Z,10.49
2023-02-18T13:15:01.740Z,10.50
2023-02-18T13:17:34.008Z,10.50
2023-02-18T13:20:05.698Z,10.51
2023-02-18T13:22:33.764Z,10.50
2023-02-18T13:25:00.397Z,10.54
2023-02-18T13:27:29.653Z,10.57
2023-02-18T13:30:10.993Z,10.59
2023-02-18T13:32:48.206Z,10.59
2023-02-18T13:35:34.625Z,10.61
2023-02-18T13:38:04.172Z,10.68
2023-02-18T13:40:32.414Z,10.67
2023-02-18T13:43:20.847Z,10.65
2023-02-18T13:46:17.530Z,10.70
2023-02-18T13:48:52.611Z,10.76
2023-02-18T13:51:40.064Z,10.76
2023-02-18T13:54:13.076Z,10.78
2023-02-18T13:56:58.251Z,10.79
2023-02-18T13:59:42.854Z,10.75
2023-02-18T14:02:21.646Z,10.84
2023-02-18T14:04:55.549Z,10.79
2023-02-18T14:07:25.136Z,10.87
2023-02-18T14:09:53.770Z,10.82
2023-02-18T14:13:03.188Z,10.84
2023-02-18T14:15:29.672Z,10.83
2023-02-18T14:17:58.881Z,10.88
2023-02-18T14:20:39.484Z,10.94
2023-02-18T14:23:19.149Z,10.92
2023-02-18T14:25:57.499Z,10.94
2023-02-18T14:28:38.836Z,10.93
2023-02-18T14:31:22.130Z,10.90
2023-02-18T14:34:23.440Z,11.04
2023-02-18T14:37:24.211Z,11.07
2023-02-18T14:40:23.409Z,10.98
2023-02-18T14:42:57.214Z,11.07
2023-02-18T14:45:26.624Z,11.11
2023-02-18T14:48:08.415Z,11.11
2023-02-18T14:50:38.729Z,11.03
2023-02-18T14:53:08.303Z,11.04
2023-02-18T14:55:37.776Z,11.13
2023-02-18T14:58:32.632Z,11.09
2023-02-18T15:01:06.833Z,11.11
2023-02-18T15:03:33.453Z,11.12
2023-02-18T15:05:59.959Z,11.16
2023-02-18T15:08:26.678Z,11.12
2023-02-18T15:11:07.427Z,11.07
2023-02-18T15:13:37.086Z,11.05
2023-02-18T15:16:08.482Z,11.09
2023-02-18T15:18:42.219Z,11.17
2023-02-18T15:21:17.729Z,11.17
2023-02-18T15:23:44.299Z,11.23
2023-02-18T15:26:16.048Z,11.23
2023-02-18T15:28:54.193Z,11.30
2023-02-18T15:31:26.113Z,11.28
2023-02-18T15:33:52.690Z,11.30
2023-02-18T15:36:19.144Z,11.31
2023-02-18T15:38:45.704Z,11.25
2023-02-18T15:41:15.092Z,11.35
2023-02-18T15:44:01.477Z,11.34
2023-02-18T15:46:28.845Z,11.31
2023-02-18T15:48:57.342Z,11.40
2023-02-18T15:51:28.853Z,11.38
2023-02-18T15:54:02.616Z,11.37
2023-02-18T15:56:40.161Z,11.38
2023-02-18T15:59:20.266Z,11.43
2023-02-18T16:01:51.749Z,11.36
2023-02-18T16:04:19.971Z,11.36
2023-02-18T16:06:50.707Z,11.36
2023-02-18T16:09:30.373Z,11.48
2023-02-18T16:11:59.681Z,11.43
2023-02-18T16:14:46.358Z,11.44
2023-02-18T16:17:12.801Z,11.50
2023-02-18T16:19:46.943Z,11.39
2023-02-18T16:22:34.127Z,11.36
2023-02-18T16:25:06.922Z,11.40
2023-02-18T16:27:36.973Z,11.46
2023-02-18T16:30:17.119Z,11.37
2023-02-18T16:32:43.959Z,11.33
2023-02-18T16:35:12.152Z,11.41
2023-02-18T16:37:39.179Z,11.36
2023-02-18T16:40:39.536Z,11.37
2023-02-18T16:43:15.433Z,11.38
2023-02-18T16:45:44.839Z,11.36
2023-02-18T16:48:34.187Z,11.39
2023-02-18T16:51:13.854Z,11.38
2023-02-18T16:53:40.442Z,11.40
2023-02-18T16:56:14.453Z,11.37
2023-02-18T16:58:41.065Z,11.37
2023-02-18T17:01:19.047Z,11.40
2023-02-18T17:03:48.495Z,11.44
2023-02-18T17:06:15.839Z,11.43
2023-02-18T17:08:42.382Z,11.37
2023-02-18T17:11:25.992Z,11.43
2023-02-18T17:13:53.944Z,11.42
2023-02-18T17:16:21.529Z,11.41
2023-02-18T17:18:48.493Z,11.41
2023-02-18T17:21:18.115Z,11.41
2023-02-18T17:23:45.206Z,11.38
2023-02-18T17:26:16.229Z,11.40
2023-02-18T17:28:42.771Z,11.40
2023-02-18T17:31:15.603Z,11.40
2023-02-18T17:33:42.903Z,11.45
2023-02-18T17:36:11.741Z,11.44
2023-02-18T17:38:39.238Z,11.39
2023-02-18T17:41:06.686Z,11.40
2023-02-18T17:43:33.901Z,11.43
2023-02-18T17:46:00.744Z,11.35
2023-02-18T17:48:28.301Z,11.45
2023-02-18T17:50:54.855Z,11.38
2023-02-18T17:53:21.899Z,11.44
2023-02-18T17:55:49.384Z,11.42
2023-02-18T17:58:16.907Z,11.51
2023-02-18T18:00:47.040Z,11.43
2023-02-18T18:03:14.108Z,11.48
2023-02-18T18:05:43.342Z,11.58
2023-02-18T18:08:10.864Z,11.55
2023-02-18T18:10:40.921Z,11.60
2023-02-18T18:13:12.986Z,11.53
2023-02-18T18:15:41.959Z,11.56
2023-02-18T18:18:10.612Z,11.54
2023-02-18T18:20:38.010Z,11.53
2023-02-18T18:23:06.286Z,11.55
2023-02-18T18:25:37.348Z,11.54
2023-02-18T18:28:05.368Z,11.61
2023-02-18T18:30:35.560Z,11.58
2023-02-18T18:33:03.330Z,11.59
2023-02-18T18:35:32.799Z,11.55
2023-02-18T18:38:00.077Z,11.56
2023-02-18T18:40:29.847Z,11.52
2023-02-18T18:42:57.743Z,11.51
2023-02-18T18:45:24.262Z,11.54
2023-02-18T18:47:51.963Z,11.49
2023-02-18T18:50:20.279Z,11.56
2023-02-18T18:52:48.212Z,11.47
2023-02-18T18:55:26.881Z,11.48
2023-02-18T18:57:53.810Z,11.44
2023-02-18T19:00:24.596Z,11.38
2023-02-18T19:02:51.404Z,11.40
2023-02-18T19:05:25.951Z,11.40
2023-02-18T19:07:53.017Z,11.39
2023-02-18T19:10:20.228Z,11.34
2023-02-18T19:12:47.307Z,11.40
2023-02-18T19:15:17.206Z,11.34
2023-02-18T19:17:48.701Z,11.31
2023-02-18T19:20:17.198Z,11.33
2023-02-18T19:22:43.673Z,11.30
2023-02-18T19:25:10.487Z,11.40
2023-02-18T19:27:39.142Z,11.34
2023-02-18T19:30:07.205Z,11.40
2023-02-18T19:32:34.196Z,11.41
2023-02-18T19:35:00.824Z,11.35
2023-02-18T19:37:31.849Z,11.31
2023-02-18T19:39:58.713Z,11.35
2023-02-18T19:42:25.407Z,11.38
2023-02-18T19:44:55.581Z,11.33
2023-02-18T19:47:24.130Z,11.35
2023-02-18T19:49:51.036Z,11.37
2023-02-18T19:52:18.573Z,11.27
2023-02-18T19:55:05.480Z,11.28
2023-02-18T19:57:32.893Z,11.38
2023-02-18T19:59:59.436Z,11.26
2023-02-18T20:02:26.421Z,11.24
2023-02-18T20:04:54.719Z,11.33
2023-02-18T20:07:22.519Z,11.30
2023-02-18T20:09:53.147Z,11.32
2023-02-18T20:12:20.181Z,11.25
2023-02-18T20:14:46.874Z,11.25
2023-02-18T20:17:13.344Z,11.16
2023-02-18T20:19:40.106Z,11.20
2023-02-18T20:22:07.633Z,11.19
2023-02-18T20:24:34.352Z,11.22
2023-02-18T20:27:02.695Z,11.19
2023-02-18T20:29:29.874Z,11.21
2023-02-18T20:31:56.424Z,11.18
2023-02-18T20:34:22.979Z,11.14
2023-02-18T20:36:50.084Z,11.23
2023-02-18T20:39:17.928Z,11.18
2023-02-18T20:41:46.091Z,11.15
2023-02-18T20:44:13.113Z,11.21
2023-02-18T20:46:40.108Z,11.29
2023-02-18T20:49:08.959Z,11.23
2023-02-18T20:51:35.903Z,11.21
2023-02-18T20:54:09.193Z,11.20
2023-02-18T20:56:39.151Z,11.21
2023-02-18T20:59:05.999Z,11.23
2023-02-18T21:01:32.670Z,11.28
2023-02-18T21:03:59.243Z,11.26
2023-02-18T21:06:25.866Z,11.24
2023-02-18T21:08:54.050Z,11.29
2023-02-18T21:11:23.661Z,11.30
2023-02-18T21:13:51.880Z,11.30
2023-02-18T21:16:20.025Z,11.30
2023-02-18T21:18:46.676Z,11.37
2023-02-18T21:21:14.072Z,11.38
2023-02-18T21:23:41.029Z,11.34
2023-02-18T21:26:11.301Z,11.29
2023-02-18T21:28:39.008Z,11.42
2023-02-18T21:31:13.954Z,11.38
2023-02-18T21:33:40.531Z,11.35
2023-02-18T21:36:07.270Z,11.35
2023-02-18T21:38:34.295Z,11.40
2023-02-18T21:41:00.834Z,11.34
2023-02-18T21:43:27.326Z,11.28
2023-02-18T21:45:53.779Z,11.43
2023-02-18T21:48:38.932Z,11.37
2023-02-18T21:51:05.536Z,11.31
2023-02-18T21:53:32.032Z,11.31
2023-02-18T21:56:08.978Z,11.37
2023-02-18T21:58:35.458Z,11.37
2023-02-18T22:01:01.985Z,11.37
2023-02-18T22:03:28.466Z,11.37
2023-02-18T22:05:55.043Z,11.35
2023-02-18T22:08:25.540Z,11.32
2023-02-18T22:10:52.014Z,11.29
2023-02-18T22:13:18.503Z,11.25
2023-02-18T22:15:44.949Z,11.18
2023-02-18T22:18:11.466Z,11.18
2023-02-18T22:20:39.023Z,11.07
2023-02-18T22:23:05.541Z,11.14
2023-02-18T22:25:32.001Z,11.14
2023-02-18T22:27:58.489Z,11.09
2023-02-18T22:30:25.058Z,11.14
2023-02-18T22:32:51.541Z,11.08
2023-02-18T22:35:18.167Z,11.15
2023-02-18T22:37:44.633Z,11.14
2023-02-18T22:40:11.279Z,11.14
2023-02-18T22:42:37.822Z,11.11
2023-02-18T22:45:04.666Z,11.16
2023-02-18T22:47:31.181Z,11.18
2023-02-18T22:49:57.632Z,11.20
2023-02-18T22:52:24.160Z,11.27
2023-02-18T22:54:50.677Z,11.19
2023-02-18T22:57:17.217Z,11.36
2023-02-18T22:59:43.749Z,11.31
2023-02-18T23:02:10.394Z,11.31
2023-02-18T23:04:39.673Z,11.29
2023-02-18T23:07:06.286Z,11.21
2023-02-18T23:09:32.869Z,11.34
2023-02-18T23:11:59.507Z,11.20
2023-02-18T23:14:28.110Z,11.21
2023-02-18T23:17:15.946Z,11.16
2023-02-18T23:19:47.864Z,11.14
2023-02-18T23:22:28.570Z,11.16
2023-02-18T23:24:55.117Z,11.19
2023-02-18T23:27:23.184Z,11.11
2023-02-18T23:29:49.746Z,11.11
2023-02-18T23:32:16.705Z,11.05
2023-02-18T23:34:43.234Z,11.13
2023-02-18T23:37:10.258Z,11.04
2023-02-18T23:39:36.995Z,11.08
2023-02-18T23:42:03.623Z,11.14
2023-02-18T23:44:30.274Z,11.08
2023-02-18T23:46:56.790Z,11.08
2023-02-18T23:49:25.683Z,11.13
2023-02-18T23:51:54.154Z,11.14
2023-02-18T23:54:21.404Z,11.06
2023-02-18T23:56:48.084Z,11.16
2023-02-18T23:59:14.575Z,11.10
